sensor_id;sensor_type;location;lat;lon;timestamp;P1;durP1;ratioP1;P2;durP2;ratioP2
50779;SDS011;36748;37.428;-121.972;2023-05-10T00:01:55;5.40;;;0.82;;
50779;SDS011;36748;37.428;-121.972;2023-05-10T00:04:21;1.17;;;0.60;;
50779;SDS011;36748;37.428;-121.972;2023-05-10T00:06:47;2.15;;;0.52;;
50779;SDS011;36748;37.428;-121.972;2023-05-10T00:09:13;1.77;;;0.68;;
50779;SDS011;36748;37.428;-121.972;2023-05-10T00:11:39;3.22;;;0.63;;
50779;SDS011;36748;37.428;-121.972;2023-05-10T00:14:06;3.50;;;0.80;;
50779;SDS011;36748;37.428;-121.972;2023-05-10T00:16:32;2.67;;;0.60;;
50779;SDS011;36748;37.428;-121.972;2023-05-10T00:18:58;2.33;;;0.70;;
50779;SDS011;36748;37.428;-121.972;2023-05-10T00:21:24;2.00;;;0.40;;
50779;SDS011;36748;37.428;-121.972;2023-05-10T00:23:50;1.58;;;0.43;;
50779;SDS011;36748;37.428;-121.972;2023-05-10T00:26:16;2.35;;;0.68;;
50779;SDS011;36748;37.428;-121.972;2023-05-10T00:28:43;1.42;;;0.38;;
50779;SDS011;36748;37.428;-121.972;2023-05-10T00:31:09;3.40;;;0.52;;
50779;SDS011;36748;37.428;-121.972;2023-05-10T00:33:35;1.90;;;0.95;;
50779;SDS011;36748;37.428;-121.972;2023-05-10T00:36:01;1.55;;;0.43;;
50779;SDS011;36748;37.428;-121.972;2023-05-10T00:38:27;3.97;;;0.40;;
50779;SDS011;36748;37.428;-121.972;2023-05-10T00:40:53;1.63;;;0.70;;
50779;SDS011;36748;37.428;-121.972;2023-05-10T00:43:20;2.42;;;0.60;;
50779;SDS011;36748;37.428;-121.972;2023-05-10T00:45:46;1.42;;;0.30;;
50779;SDS011;36748;37.428;-121.972;2023-05-10T00:48:12;2.47;;;0.32;;
50779;SDS011;36748;37.428;-121.972;2023-05-10T00:50:39;2.20;;;0.40;;
50779;SDS011;36748;37.428;-121.972;2023-05-10T00:53:05;3.22;;;0.60;;
50779;SDS011;36748;37.428;-121.972;2023-05-10T00:55:31;2.10;;;0.50;;
50779;SDS011;36748;37.428;-121.972;2023-05-10T00:57:58;2.03;;;0.50;;
50779;SDS011;36748;37.428;-121.972;2023-05-10T01:00:24;2.97;;;0.40;;
50779;SDS011;36748;37.428;-121.972;2023-05-10T01:02:51;2.50;;;0.60;;
50779;SDS011;36748;37.428;-121.972;2023-05-10T01:05:18;2.75;;;0.70;;
50779;SDS011;36748;37.428;-121.972;2023-05-10T01:07:45;2.42;;;0.40;;
50779;SDS011;36748;37.428;-121.972;2023-05-10T01:10:11;2.05;;;0.43;;
50779;SDS011;36748;37.428;-121.972;2023-05-10T01:12:39;2.92;;;0.50;;
50779;SDS011;36748;37.428;-121.972;2023-05-10T01:15:07;4.03;;;0.35;;
50779;SDS011;36748;37.428;-121.972;2023-05-10T01:17:34;2.83;;;0.40;;
50779;SDS011;36748;37.428;-121.972;2023-05-10T01:20:01;3.17;;;0.60;;
50779;SDS011;36748;37.428;-121.972;2023-05-10T01:46:55;0.70;;;0.30;;
50779;SDS011;36748;37.428;-121.972;2023-05-10T01:49:41;1.17;;;0.40;;
50779;SDS011;36748;37.428;-121.972;2023-05-10T01:52:16;3.33;;;0.45;;
50779;SDS011;36748;37.428;-121.972;2023-05-10T01:54:52;6.80;;;0.77;;
50779;SDS011;36748;37.428;-121.972;2023-05-10T01:57:21;1.63;;;0.40;;
50779;SDS011;36748;37.428;-121.972;2023-05-10T01:59:50;1.40;;;0.50;;
50779;SDS011;36748;37.428;-121.972;2023-05-10T02:02:18;2.17;;;0.30;;
50779;SDS011;36748;37.428;-121.972;2023-05-10T02:04:46;1.75;;;0.52;;
50779;SDS011;36748;37.428;-121.972;2023-05-10T02:07:13;1.60;;;0.50;;
50779;SDS011;36748;37.428;-121.972;2023-05-10T02:09:40;0.90;;;0.30;;
50779;SDS011;36748;37.428;-121.972;2023-05-10T02:12:06;2.85;;;0.50;;
50779;SDS011;36748;37.428;-121.972;2023-05-10T02:14:34;1.13;;;0.30;;
50779;SDS011;36748;37.428;-121.972;2023-05-10T02:17:02;2.50;;;0.38;;
50779;SDS011;36748;37.428;-121.972;2023-05-10T02:19:31;1.08;;;0.38;;
50779;SDS011;36748;37.428;-121.972;2023-05-10T02:21:58;33.88;;;3.45;;
50779;SDS011;36748;37.428;-121.972;2023-05-10T02:24:25;15.82;;;2.92;;
50779;SDS011;36748;37.428;-121.972;2023-05-10T02:26:53;44.03;;;5.40;;
50779;SDS011;36748;37.428;-121.972;2023-05-10T02:29:21;34.45;;;5.85;;
50779;SDS011;36748;37.428;-121.972;2023-05-10T02:31:52;33.67;;;4.90;;
50779;SDS011;36748;37.428;-121.972;2023-05-10T02:34:19;37.63;;;4.38;;
50779;SDS011;36748;37.428;-121.972;2023-05-10T02:36:46;35.33;;;6.22;;
50779;SDS011;36748;37.428;-121.972;2023-05-10T02:39:12;20.88;;;5.05;;
50779;SDS011;36748;37.428;-121.972;2023-05-10T02:41:40;33.20;;;5.45;;
50779;SDS011;36748;37.428;-121.972;2023-05-10T02:44:07;21.85;;;4.53;;
50779;SDS011;36748;37.428;-121.972;2023-05-10T02:46:35;24.33;;;5.90;;
50779;SDS011;36748;37.428;-121.972;2023-05-10T02:49:02;15.90;;;4.53;;
50779;SDS011;36748;37.428;-121.972;2023-05-10T02:51:30;21.30;;;4.38;;
50779;SDS011;36748;37.428;-121.972;2023-05-10T02:53:57;20.20;;;4.32;;
50779;SDS011;36748;37.428;-121.972;2023-05-10T02:56:31;21.40;;;5.03;;
50779;SDS011;36748;37.428;-121.972;2023-05-10T02:58:59;21.13;;;3.97;;
50779;SDS011;36748;37.428;-121.972;2023-05-10T03:01:25;21.58;;;4.40;;
50779;SDS011;36748;37.428;-121.972;2023-05-10T03:03:51;16.58;;;3.97;;
50779;SDS011;36748;37.428;-121.972;2023-05-10T03:06:17;16.63;;;3.60;;
50779;SDS011;36748;37.428;-121.972;2023-05-10T03:08:43;17.13;;;3.42;;
50779;SDS011;36748;37.428;-121.972;2023-05-10T03:16:40;11.23;;;3.03;;
50779;SDS011;36748;37.428;-121.972;2023-05-10T03:19:26;19.52;;;3.60;;
50779;SDS011;36748;37.428;-121.972;2023-05-10T03:21:57;13.40;;;3.13;;
50779;SDS011;36748;37.428;-121.972;2023-05-10T03:24:25;20.55;;;3.15;;
50779;SDS011;36748;37.428;-121.972;2023-05-10T03:26:54;10.18;;;3.25;;
50779;SDS011;36748;37.428;-121.972;2023-05-10T03:29:22;15.13;;;3.00;;
50779;SDS011;36748;37.428;-121.972;2023-05-10T03:31:48;9.68;;;2.80;;
50779;SDS011;36748;37.428;-121.972;2023-05-10T03:34:15;10.40;;;2.88;;
50779;SDS011;36748;37.428;-121.972;2023-05-10T03:36:44;12.02;;;3.05;;
50779;SDS011;36748;37.428;-121.972;2023-05-10T03:39:10;10.63;;;2.92;;
50779;SDS011;36748;37.428;-121.972;2023-05-10T03:41:41;8.20;;;2.60;;
50779;SDS011;36748;37.428;-121.972;2023-05-10T03:44:08;8.85;;;2.70;;
50779;SDS011;36748;37.428;-121.972;2023-05-10T03:46:34;11.18;;;3.13;;
50779;SDS011;36748;37.428;-121.972;2023-05-10T03:49:00;16.42;;;2.92;;
50779;SDS011;36748;37.428;-121.972;2023-05-10T03:51:26;9.77;;;2.78;;
50779;SDS011;36748;37.428;-121.972;2023-05-10T03:53:53;11.40;;;3.03;;
50779;SDS011;36748;37.428;-121.972;2023-05-10T03:56:20;6.90;;;2.38;;
50779;SDS011;36748;37.428;-121.972;2023-05-10T03:58:47;10.32;;;2.60;;
50779;SDS011;36748;37.428;-121.972;2023-05-10T04:01:15;5.63;;;2.00;;
50779;SDS011;36748;37.428;-121.972;2023-05-10T04:03:42;7.88;;;2.15;;
50779;SDS011;36748;37.428;-121.972;2023-05-10T04:06:08;8.45;;;2.40;;
50779;SDS011;36748;37.428;-121.972;2023-05-10T04:08:36;3.90;;;1.90;;
50779;SDS011;36748;37.428;-121.972;2023-05-10T04:11:09;6.88;;;2.33;;
50779;SDS011;36748;37.428;-121.972;2023-05-10T04:13:37;7.53;;;2.53;;
50779;SDS011;36748;37.428;-121.972;2023-05-10T04:16:03;7.18;;;2.20;;
50779;SDS011;36748;37.428;-121.972;2023-05-10T04:18:30;7.50;;;2.53;;
50779;SDS011;36748;37.428;-121.972;2023-05-10T04:20:57;7.30;;;2.28;;
50779;SDS011;36748;37.428;-121.972;2023-05-10T04:23:23;10.57;;;2.72;;
50779;SDS011;36748;37.428;-121.972;2023-05-10T04:25:49;4.57;;;1.98;;
50779;SDS011;36748;37.428;-121.972;2023-05-10T04:28:15;9.73;;;2.75;;
50779;SDS011;36748;37.428;-121.972;2023-05-10T04:30:41;8.57;;;2.00;;
50779;SDS011;36748;37.428;-121.972;2023-05-10T04:33:08;9.00;;;2.60;;
50779;SDS011;36748;37.428;-121.972;2023-05-10T04:35:34;9.55;;;2.35;;
50779;SDS011;36748;37.428;-121.972;2023-05-10T04:38:00;5.88;;;1.85;;
50779;SDS011;36748;37.428;-121.972;2023-05-10T04:40:26;7.20;;;2.00;;
50779;SDS011;36748;37.428;-121.972;2023-05-10T04:42:53;5.50;;;1.50;;
50779;SDS011;36748;37.428;-121.972;2023-05-10T04:45:19;10.35;;;2.38;;
50779;SDS011;36748;37.428;-121.972;2023-05-10T04:47:45;5.45;;;1.75;;
50779;SDS011;36748;37.428;-121.972;2023-05-10T04:50:11;5.13;;;2.35;;
50779;SDS011;36748;37.428;-121.972;2023-05-10T04:52:38;7.68;;;2.30;;
50779;SDS011;36748;37.428;-121.972;2023-05-10T04:55:04;7.25;;;1.95;;
50779;SDS011;36748;37.428;-121.972;2023-05-10T04:57:32;4.40;;;1.77;;
50779;SDS011;36748;37.428;-121.972;2023-05-10T05:00:20;4.15;;;1.90;;
50779;SDS011;36748;37.428;-121.972;2023-05-10T05:02:46;5.28;;;1.90;;
50779;SDS011;36748;37.428;-121.972;2023-05-10T05:05:12;6.50;;;1.90;;
50779;SDS011;36748;37.428;-121.972;2023-05-10T05:07:39;5.47;;;1.85;;
50779;SDS011;36748;37.428;-121.972;2023-05-10T05:10:06;7.25;;;2.10;;
50779;SDS011;36748;37.428;-121.972;2023-05-10T05:12:33;4.20;;;1.83;;
50779;SDS011;36748;37.428;-121.972;2023-05-10T05:15:00;9.35;;;1.98;;
50779;SDS011;36748;37.428;-121.972;2023-05-10T05:17:26;6.95;;;1.80;;
50779;SDS011;36748;37.428;-121.972;2023-05-10T05:19:52;4.97;;;1.92;;
50779;SDS011;36748;37.428;-121.972;2023-05-10T05:22:19;4.55;;;2.15;;
50779;SDS011;36748;37.428;-121.972;2023-05-10T05:24:52;4.88;;;1.73;;
50779;SDS011;36748;37.428;-121.972;2023-05-10T05:27:18;7.50;;;1.90;;
50779;SDS011;36748;37.428;-121.972;2023-05-10T05:29:46;6.43;;;2.03;;
50779;SDS011;36748;37.428;-121.972;2023-05-10T05:32:12;5.43;;;1.90;;
50779;SDS011;36748;37.428;-121.972;2023-05-10T05:34:38;5.95;;;1.77;;
50779;SDS011;36748;37.428;-121.972;2023-05-10T05:37:04;5.00;;;1.70;;
50779;SDS011;36748;37.428;-121.972;2023-05-10T05:39:31;3.50;;;1.70;;
50779;SDS011;36748;37.428;-121.972;2023-05-10T05:41:57;5.07;;;1.70;;
50779;SDS011;36748;37.428;-121.972;2023-05-10T05:44:23;4.15;;;1.25;;
50779;SDS011;36748;37.428;-121.972;2023-05-10T05:46:49;4.70;;;1.70;;
50779;SDS011;36748;37.428;-121.972;2023-05-10T05:49:16;3.15;;;1.40;;
50779;SDS011;36748;37.428;-121.972;2023-05-10T05:51:42;3.58;;;1.30;;
50779;SDS011;36748;37.428;-121.972;2023-05-10T05:54:08;2.40;;;1.30;;
50779;SDS011;36748;37.428;-121.972;2023-05-10T05:56:34;3.08;;;1.52;;
50779;SDS011;36748;37.428;-121.972;2023-05-10T05:59:00;4.60;;;1.70;;
50779;SDS011;36748;37.428;-121.972;2023-05-10T06:01:27;2.92;;;1.25;;
50779;SDS011;36748;37.428;-121.972;2023-05-10T06:03:53;14.15;;;2.00;;
50779;SDS011;36748;37.428;-121.972;2023-05-10T06:06:19;4.18;;;1.73;;
50779;SDS011;36748;37.428;-121.972;2023-05-10T06:08:45;2.90;;;1.15;;
50779;SDS011;36748;37.428;-121.972;2023-05-10T06:11:11;6.78;;;1.63;;
50779;SDS011;36748;37.428;-121.972;2023-05-10T06:13:37;2.55;;;1.30;;
50779;SDS011;36748;37.428;-121.972;2023-05-10T06:16:04;4.03;;;1.50;;
50779;SDS011;36748;37.428;-121.972;2023-05-10T06:18:30;5.20;;;1.33;;
50779;SDS011;36748;37.428;-121.972;2023-05-10T06:20:56;3.50;;;1.40;;
50779;SDS011;36748;37.428;-121.972;2023-05-10T06:23:23;3.70;;;1.50;;
50779;SDS011;36748;37.428;-121.972;2023-05-10T06:25:51;3.10;;;1.17;;
50779;SDS011;36748;37.428;-121.972;2023-05-10T06:28:17;2.67;;;1.20;;
50779;SDS011;36748;37.428;-121.972;2023-05-10T06:30:44;6.13;;;1.38;;
50779;SDS011;36748;37.428;-121.972;2023-05-10T06:33:10;4.22;;;1.27;;
50779;SDS011;36748;37.428;-121.972;2023-05-10T06:35:36;4.30;;;1.40;;
50779;SDS011;36748;37.428;-121.972;2023-05-10T06:38:02;4.78;;;1.50;;
50779;SDS011;36748;37.428;-121.972;2023-05-10T06:40:28;3.45;;;1.58;;
50779;SDS011;36748;37.428;-121.972;2023-05-10T06:42:55;2.08;;;1.08;;
50779;SDS011;36748;37.428;-121.972;2023-05-10T06:45:21;2.50;;;1.10;;
50779;SDS011;36748;37.428;-121.972;2023-05-10T06:47:47;1.88;;;1.02;;
50779;SDS011;36748;37.428;-121.972;2023-05-10T06:50:13;2.92;;;1.30;;
50779;SDS011;36748;37.428;-121.972;2023-05-10T06:52:39;2.70;;;1.48;;
50779;SDS011;36748;37.428;-121.972;2023-05-10T06:55:06;2.40;;;1.00;;
50779;SDS011;36748;37.428;-121.972;2023-05-10T06:57:33;2.65;;;1.27;;
50779;SDS011;36748;37.428;-121.972;2023-05-10T06:59:59;3.38;;;1.23;;
50779;SDS011;36748;37.428;-121.972;2023-05-10T07:02:26;2.22;;;0.95;;
50779;SDS011;36748;37.428;-121.972;2023-05-10T07:04:52;3.28;;;1.40;;
50779;SDS011;36748;37.428;-121.972;2023-05-10T07:07:19;2.35;;;1.05;;
50779;SDS011;36748;37.428;-121.972;2023-05-10T07:09:45;3.13;;;1.27;;
50779;SDS011;36748;37.428;-121.972;2023-05-10T07:12:11;1.23;;;0.90;;
50779;SDS011;36748;37.428;-121.972;2023-05-10T07:14:38;1.20;;;0.77;;
50779;SDS011;36748;37.428;-121.972;2023-05-10T07:17:04;2.30;;;1.10;;
50779;SDS011;36748;37.428;-121.972;2023-05-10T07:19:30;2.35;;;1.20;;
50779;SDS011;36748;37.428;-121.972;2023-05-10T07:21:57;2.15;;;0.80;;
50779;SDS011;36748;37.428;-121.972;2023-05-10T07:24:24;1.70;;;1.00;;
50779;SDS011;36748;37.428;-121.972;2023-05-10T07:26:50;2.47;;;1.02;;
50779;SDS011;36748;37.428;-121.972;2023-05-10T07:29:16;1.58;;;0.82;;
50779;SDS011;36748;37.428;-121.972;2023-05-10T07:31:42;2.33;;;1.10;;
50779;SDS011;36748;37.428;-121.972;2023-05-10T07:34:08;3.15;;;1.10;;
50779;SDS011;36748;37.428;-121.972;2023-05-10T07:36:35;2.10;;;0.90;;
50779;SDS011;36748;37.428;-121.972;2023-05-10T07:39:01;3.83;;;1.27;;
50779;SDS011;36748;37.428;-121.972;2023-05-10T07:41:28;2.80;;;0.82;;
50779;SDS011;36748;37.428;-121.972;2023-05-10T07:43:54;2.38;;;0.90;;
50779;SDS011;36748;37.428;-121.972;2023-05-10T07:46:20;1.10;;;0.70;;
50779;SDS011;36748;37.428;-121.972;2023-05-10T07:48:46;2.30;;;0.93;;
50779;SDS011;36748;37.428;-121.972;2023-05-10T07:51:12;2.65;;;0.65;;
50779;SDS011;36748;37.428;-121.972;2023-05-10T07:53:38;2.30;;;0.90;;
50779;SDS011;36748;37.428;-121.972;2023-05-10T07:58:50;4.70;;;1.05;;
50779;SDS011;36748;37.428;-121.972;2023-05-10T08:01:17;3.75;;;0.90;;
50779;SDS011;36748;37.428;-121.972;2023-05-10T08:03:43;3.05;;;0.82;;
50779;SDS011;36748;37.428;-121.972;2023-05-10T08:06:09;2.03;;;0.90;;
50779;SDS011;36748;37.428;-121.972;2023-05-10T08:08:36;2.20;;;0.77;;
50779;SDS011;36748;37.428;-121.972;2023-05-10T08:11:03;2.35;;;1.05;;
50779;SDS011;36748;37.428;-121.972;2023-05-10T08:13:29;1.45;;;1.00;;
50779;SDS011;36748;37.428;-121.972;2023-05-10T08:15:56;2.97;;;1.17;;
50779;SDS011;36748;37.428;-121.972;2023-05-10T08:18:22;2.30;;;0.82;;
50779;SDS011;36748;37.428;-121.972;2023-05-10T08:20:48;3.15;;;0.90;;
50779;SDS011;36748;37.428;-121.972;2023-05-10T08:23:15;1.40;;;0.93;;
50779;SDS011;36748;37.428;-121.972;2023-05-10T08:25:41;2.13;;;0.90;;
50779;SDS011;36748;37.428;-121.972;2023-05-10T08:28:07;2.33;;;1.20;;
50779;SDS011;36748;37.428;-121.972;2023-05-10T08:30:34;1.38;;;0.95;;
50779;SDS011;36748;37.428;-121.972;2023-05-10T08:33:00;1.92;;;0.88;;
50779;SDS011;36748;37.428;-121.972;2023-05-10T08:35:26;2.10;;;0.95;;
50779;SDS011;36748;37.428;-121.972;2023-05-10T08:37:52;1.77;;;0.90;;
50779;SDS011;36748;37.428;-121.972;2023-05-10T08:40:19;1.80;;;0.90;;
50779;SDS011;36748;37.428;-121.972;2023-05-10T08:43:04;2.28;;;1.05;;
50779;SDS011;36748;37.428;-121.972;2023-05-10T08:45:44;1.50;;;0.77;;
50779;SDS011;36748;37.428;-121.972;2023-05-10T08:48:12;1.27;;;0.70;;
50779;SDS011;36748;37.428;-121.972;2023-05-10T08:50:39;1.00;;;0.60;;
50779;SDS011;36748;37.428;-121.972;2023-05-10T08:53:09;2.72;;;0.95;;
50779;SDS011;36748;37.428;-121.972;2023-05-10T08:55:36;2.70;;;1.15;;
50779;SDS011;36748;37.428;-121.972;2023-05-10T08:58:04;2.63;;;0.70;;
50779;SDS011;36748;37.428;-121.972;2023-05-10T09:00:31;2.00;;;0.60;;
50779;SDS011;36748;37.428;-121.972;2023-05-10T09:03:01;1.45;;;0.85;;
50779;SDS011;36748;37.428;-121.972;2023-05-10T09:05:28;1.73;;;0.90;;
50779;SDS011;36748;37.428;-121.972;2023-05-10T09:07:54;2.13;;;0.95;;
50779;SDS011;36748;37.428;-121.972;2023-05-10T09:10:20;2.53;;;0.80;;
50779;SDS011;36748;37.428;-121.972;2023-05-10T09:12:47;2.05;;;0.85;;
50779;SDS011;36748;37.428;-121.972;2023-05-10T09:15:17;3.20;;;0.88;;
50779;SDS011;36748;37.428;-121.972;2023-05-10T09:17:44;3.65;;;1.00;;
50779;SDS011;36748;37.428;-121.972;2023-05-10T09:20:11;2.00;;;0.90;;
50779;SDS011;36748;37.428;-121.972;2023-05-10T09:22:37;1.38;;;0.70;;
50779;SDS011;36748;37.428;-121.972;2023-05-10T09:27:34;1.80;;;1.02;;
50779;SDS011;36748;37.428;-121.972;2023-05-10T09:30:01;2.03;;;0.70;;
50779;SDS011;36748;37.428;-121.972;2023-05-10T09:32:38;2.80;;;0.70;;
50779;SDS011;36748;37.428;-121.972;2023-05-10T09:37:42;1.48;;;0.60;;
50779;SDS011;36748;37.428;-121.972;2023-05-10T09:40:13;2.92;;;0.90;;
50779;SDS011;36748;37.428;-121.972;2023-05-10T09:45:27;0.75;;;0.50;;
50779;SDS011;36748;37.428;-121.972;2023-05-10T09:47:54;3.42;;;1.20;;
50779;SDS011;36748;37.428;-121.972;2023-05-10T09:50:21;1.98;;;0.77;;
50779;SDS011;36748;37.428;-121.972;2023-05-10T09:52:51;1.40;;;0.70;;
50779;SDS011;36748;37.428;-121.972;2023-05-10T09:55:24;2.78;;;0.85;;
50779;SDS011;36748;37.428;-121.972;2023-05-10T09:58:11;1.20;;;0.70;;
50779;SDS011;36748;37.428;-121.972;2023-05-10T10:00:42;2.80;;;0.68;;
50779;SDS011;36748;37.428;-121.972;2023-05-10T10:03:16;1.92;;;0.63;;
50779;SDS011;36748;37.428;-121.972;2023-05-10T10:05:44;2.42;;;0.80;;
50779;SDS011;36748;37.428;-121.972;2023-05-10T10:08:12;0.85;;;0.60;;
50779;SDS011;36748;37.428;-121.972;2023-05-10T10:10:39;2.45;;;0.73;;
50779;SDS011;36748;37.428;-121.972;2023-05-10T10:13:06;2.10;;;0.60;;
50779;SDS011;36748;37.428;-121.972;2023-05-10T10:15:33;1.95;;;0.68;;
50779;SDS011;36748;37.428;-121.972;2023-05-10T10:18:00;1.02;;;0.60;;
50779;SDS011;36748;37.428;-121.972;2023-05-10T10:20:27;0.63;;;0.47;;
50779;SDS011;36748;37.428;-121.972;2023-05-10T10:22:53;1.83;;;0.80;;
50779;SDS011;36748;37.428;-121.972;2023-05-10T10:25:20;1.25;;;0.70;;
50779;SDS011;36748;37.428;-121.972;2023-05-10T10:35:48;1.38;;;0.60;;
50779;SDS011;36748;37.428;-121.972;2023-05-10T10:38:15;1.55;;;0.82;;
50779;SDS011;36748;37.428;-121.972;2023-05-10T10:40:42;2.13;;;0.75;;
50779;SDS011;36748;37.428;-121.972;2023-05-10T10:43:24;1.88;;;0.63;;
50779;SDS011;36748;37.428;-121.972;2023-05-10T10:49:08;1.63;;;0.75;;
50779;SDS011;36748;37.428;-121.972;2023-05-10T10:51:38;1.58;;;0.70;;
50779;SDS011;36748;37.428;-121.972;2023-05-10T10:54:11;1.08;;;0.68;;
50779;SDS011;36748;37.428;-121.972;2023-05-10T10:56:37;1.23;;;0.70;;
50779;SDS011;36748;37.428;-121.972;2023-05-10T10:59:03;0.68;;;0.50;;
50779;SDS011;36748;37.428;-121.972;2023-05-10T11:01:33;1.30;;;0.60;;
50779;SDS011;36748;37.428;-121.972;2023-05-10T11:06:31;1.77;;;0.82;;
50779;SDS011;36748;37.428;-121.972;2023-05-10T11:09:09;1.67;;;0.60;;
50779;SDS011;36748;37.428;-121.972;2023-05-10T11:11:43;1.50;;;0.60;;
50779;SDS011;36748;37.428;-121.972;2023-05-10T11:14:17;0.95;;;0.60;;
50779;SDS011;36748;37.428;-121.972;2023-05-10T11:16:46;1.75;;;0.65;;
50779;SDS011;36748;37.428;-121.972;2023-05-10T11:19:13;1.05;;;0.68;;
50779;SDS011;36748;37.428;-121.972;2023-05-10T11:21:45;0.85;;;0.45;;
50779;SDS011;36748;37.428;-121.972;2023-05-10T11:24:20;1.48;;;0.70;;
50779;SDS011;36748;37.428;-121.972;2023-05-10T11:26:49;0.88;;;0.43;;
50779;SDS011;36748;37.428;-121.972;2023-05-10T11:29:16;1.33;;;0.65;;
50779;SDS011;36748;37.428;-121.972;2023-05-10T11:31:46;1.30;;;0.60;;
50779;SDS011;36748;37.428;-121.972;2023-05-10T11:34:23;3.17;;;0.70;;
50779;SDS011;36748;37.428;-121.972;2023-05-10T11:36:51;0.82;;;0.55;;
50779;SDS011;36748;37.428;-121.972;2023-05-10T11:39:19;1.17;;;0.63;;
50779;SDS011;36748;37.428;-121.972;2023-05-10T11:41:47;2.45;;;1.02;;
50779;SDS011;36748;37.428;-121.972;2023-05-10T11:44:14;1.23;;;0.60;;
50779;SDS011;36748;37.428;-121.972;2023-05-10T11:46:40;1.23;;;0.57;;
50779;SDS011;36748;37.428;-121.972;2023-05-10T11:49:06;1.00;;;0.50;;
50779;SDS011;36748;37.428;-121.972;2023-05-10T11:51:36;1.17;;;0.55;;
50779;SDS011;36748;37.428;-121.972;2023-05-10T11:54:09;2.58;;;0.65;;
50779;SDS011;36748;37.428;-121.972;2023-05-10T11:56:37;1.33;;;0.60;;
50779;SDS011;36748;37.428;-121.972;2023-05-10T11:59:06;1.55;;;0.50;;
50779;SDS011;36748;37.428;-121.972;2023-05-10T12:01:33;1.25;;;0.50;;
50779;SDS011;36748;37.428;-121.972;2023-05-10T12:04:00;1.08;;;0.50;;
50779;SDS011;36748;37.428;-121.972;2023-05-10T12:06:27;0.80;;;0.52;;
50779;SDS011;36748;37.428;-121.972;2023-05-10T12:08:57;2.67;;;0.50;;
50779;SDS011;36748;37.428;-121.972;2023-05-10T12:11:25;1.85;;;0.35;;
50779;SDS011;36748;37.428;-121.972;2023-05-10T12:13:54;1.70;;;0.40;;
50779;SDS011;36748;37.428;-121.972;2023-05-10T12:18:48;1.10;;;0.50;;
50779;SDS011;36748;37.428;-121.972;2023-05-10T12:21:16;1.92;;;0.60;;
50779;SDS011;36748;37.428;-121.972;2023-05-10T12:23:43;1.55;;;0.70;;
50779;SDS011;36748;37.428;-121.972;2023-05-10T12:26:11;2.58;;;0.70;;
50779;SDS011;36748;37.428;-121.972;2023-05-10T12:28:37;1.80;;;0.70;;
50779;SDS011;36748;37.428;-121.972;2023-05-10T12:31:05;1.38;;;0.35;;
50779;SDS011;36748;37.428;-121.972;2023-05-10T12:33:44;1.20;;;0.80;;
50779;SDS011;36748;37.428;-121.972;2023-05-10T12:36:12;0.98;;;0.40;;
50779;SDS011;36748;37.428;-121.972;2023-05-10T12:38:40;0.95;;;0.60;;
50779;SDS011;36748;37.428;-121.972;2023-05-10T12:41:18;1.55;;;0.50;;
50779;SDS011;36748;37.428;-121.972;2023-05-10T12:43:44;1.30;;;0.65;;
50779;SDS011;36748;37.428;-121.972;2023-05-10T12:46:12;1.15;;;0.43;;
50779;SDS011;36748;37.428;-121.972;2023-05-10T12:48:42;0.98;;;0.60;;
50779;SDS011;36748;37.428;-121.972;2023-05-10T12:51:09;1.65;;;0.63;;
50779;SDS011;36748;37.428;-121.972;2023-05-10T12:53:38;2.83;;;0.55;;
50779;SDS011;36748;37.428;-121.972;2023-05-10T12:56:05;1.05;;;0.50;;
50779;SDS011;36748;37.428;-121.972;2023-05-10T12:58:31;0.80;;;0.45;;
50779;SDS011;36748;37.428;-121.972;2023-05-10T13:00:58;1.25;;;0.47;;
50779;SDS011;36748;37.428;-121.972;2023-05-10T13:03:25;4.28;;;0.60;;
50779;SDS011;36748;37.428;-121.972;2023-05-10T13:05:51;2.20;;;0.55;;
50779;SDS011;36748;37.428;-121.972;2023-05-10T13:08:17;0.82;;;0.50;;
50779;SDS011;36748;37.428;-121.972;2023-05-10T13:10:43;1.38;;;0.50;;
50779;SDS011;36748;37.428;-121.972;2023-05-10T13:13:09;0.93;;;0.50;;
50779;SDS011;36748;37.428;-121.972;2023-05-10T13:15:36;1.20;;;0.52;;
50779;SDS011;36748;37.428;-121.972;2023-05-10T13:18:02;1.15;;;0.50;;
50779;SDS011;36748;37.428;-121.972;2023-05-10T13:20:28;1.20;;;0.60;;
50779;SDS011;36748;37.428;-121.972;2023-05-10T13:22:54;2.33;;;0.60;;
50779;SDS011;36748;37.428;-121.972;2023-05-10T13:25:21;1.08;;;0.40;;
50779;SDS011;36748;37.428;-121.972;2023-05-10T13:27:47;0.50;;;0.30;;
50779;SDS011;36748;37.428;-121.972;2023-05-10T13:30:13;1.20;;;0.47;;
50779;SDS011;36748;37.428;-121.972;2023-05-10T13:32:39;2.38;;;0.50;;
50779;SDS011;36748;37.428;-121.972;2023-05-10T13:35:05;1.95;;;0.50;;
50779;SDS011;36748;37.428;-121.972;2023-05-10T13:37:32;0.85;;;0.50;;
50779;SDS011;36748;37.428;-121.972;2023-05-10T13:40:02;0.95;;;0.50;;
50779;SDS011;36748;37.428;-121.972;2023-05-10T13:42:29;1.30;;;0.40;;
50779;SDS011;36748;37.428;-121.972;2023-05-10T13:44:57;1.45;;;0.50;;
50779;SDS011;36748;37.428;-121.972;2023-05-10T13:47:23;0.63;;;0.40;;
50779;SDS011;36748;37.428;-121.972;2023-05-10T13:49:49;1.05;;;0.52;;
50779;SDS011;36748;37.428;-121.972;2023-05-10T13:52:15;1.38;;;0.40;;
50779;SDS011;36748;37.428;-121.972;2023-05-10T13:54:41;2.17;;;0.40;;
50779;SDS011;36748;37.428;-121.972;2023-05-10T13:57:07;1.15;;;0.63;;
50779;SDS011;36748;37.428;-121.972;2023-05-10T13:59:34;0.77;;;0.32;;
50779;SDS011;36748;37.428;-121.972;2023-05-10T14:02:00;1.55;;;0.50;;
50779;SDS011;36748;37.428;-121.972;2023-05-10T14:04:29;5.90;;;0.60;;
50779;SDS011;36748;37.428;-121.972;2023-05-10T14:06:55;0.32;;;0.30;;
50779;SDS011;36748;37.428;-121.972;2023-05-10T14:09:21;1.58;;;0.57;;
50779;SDS011;36748;37.428;-121.972;2023-05-10T14:11:48;1.60;;;0.50;;
50779;SDS011;36748;37.428;-121.972;2023-05-10T14:14:14;1.42;;;0.40;;
50779;SDS011;36748;37.428;-121.972;2023-05-10T14:16:43;2.17;;;0.50;;
50779;SDS011;36748;37.428;-121.972;2023-05-10T14:19:10;3.00;;;0.70;;
50779;SDS011;36748;37.428;-121.972;2023-05-10T14:21:37;1.00;;;0.50;;
50779;SDS011;36748;37.428;-121.972;2023-05-10T14:24:03;4.45;;;0.75;;
50779;SDS011;36748;37.428;-121.972;2023-05-10T14:26:30;1.70;;;0.70;;
50779;SDS011;36748;37.428;-121.972;2023-05-10T14:28:56;2.60;;;0.55;;
50779;SDS011;36748;37.428;-121.972;2023-05-10T14:31:22;3.08;;;0.70;;
50779;SDS011;36748;37.428;-121.972;2023-05-10T14:33:50;1.52;;;0.50;;
50779;SDS011;36748;37.428;-121.972;2023-05-10T14:36:17;5.15;;;0.70;;
50779;SDS011;36748;37.428;-121.972;2023-05-10T14:38:43;1.42;;;0.60;;
50779;SDS011;36748;37.428;-121.972;2023-05-10T14:41:10;1.65;;;0.43;;
50779;SDS011;36748;37.428;-121.972;2023-05-10T14:43:39;0.35;;;0.30;;
50779;SDS011;36748;37.428;-121.972;2023-05-10T14:46:06;0.95;;;0.43;;
50779;SDS011;36748;37.428;-121.972;2023-05-10T14:48:32;2.67;;;0.38;;
50779;SDS011;36748;37.428;-121.972;2023-05-10T14:50:58;0.73;;;0.50;;
50779;SDS011;36748;37.428;-121.972;2023-05-10T14:53:24;0.30;;;0.20;;
50779;SDS011;36748;37.428;-121.972;2023-05-10T14:55:50;2.30;;;0.65;;
50779;SDS011;36748;37.428;-121.972;2023-05-10T14:58:17;1.13;;;0.60;;
50779;SDS011;36748;37.428;-121.972;2023-05-10T15:00:43;0.90;;;0.50;;
50779;SDS011;36748;37.428;-121.972;2023-05-10T15:03:10;0.85;;;0.32;;
50779;SDS011;36748;37.428;-121.972;2023-05-10T15:05:36;1.63;;;0.70;;
50779;SDS011;36748;37.428;-121.972;2023-05-10T15:08:03;0.93;;;0.50;;